Terminal Aerodrome Forecast
Issued by NWS

Home | Current Version | Previous Version | Text Only | Print | Product List | Glossary On
Versions: 1 2 3 4 5 6 7 8 9 10 11 12 13 14 15 16 17 18 19
051
FTUS43 KGRR 240541
TAFBTL
TAF
KBTL 240541Z 2406/2506 23007KT P6SM -RA SCT025 OVC040
      TEMPO 2406/2408 4SM -RA BR OVC025
     FM240800 22008KT 4SM -SHRA BR OVC015
     FM241000 22008KT 4SM -SHRA BR OVC010
     FM241600 22014G24KT 3SM -SHRA BR OVC010
     FM242200 27012KT 3SM -SHRA BR OVC015=

USA.gov is the U.S. government's official web portal to all federal, state and local government web resources and services.